sensor_id;sensor_type;location;lat;lon;timestamp;P1;durP1;ratioP1;P2;durP2;ratioP2
15408;SDS011;7803;48.130;13.788;2023-04-04T00:00:25;8.30;;;7.22;;
15408;SDS011;7803;48.130;13.788;2023-04-04T00:03:27;9.27;;;8.15;;
15408;SDS011;7803;48.130;13.788;2023-04-04T00:06:30;8.50;;;7.47;;
15408;SDS011;7803;48.130;13.788;2023-04-04T00:09:32;10.35;;;8.23;;
15408;SDS011;7803;48.130;13.788;2023-04-04T00:12:35;8.48;;;7.55;;
15408;SDS011;7803;48.130;13.788;2023-04-04T00:15:37;8.68;;;7.53;;
15408;SDS011;7803;48.130;13.788;2023-04-04T00:18:39;9.60;;;7.78;;
15408;SDS011;7803;48.130;13.788;2023-04-04T00:21:43;8.45;;;7.55;;
15408;SDS011;7803;48.130;13.788;2023-04-04T00:24:45;8.70;;;7.32;;
15408;SDS011;7803;48.130;13.788;2023-04-04T00:27:48;9.48;;;7.80;;
15408;SDS011;7803;48.130;13.788;2023-04-04T00:30:50;8.88;;;7.53;;
15408;SDS011;7803;48.130;13.788;2023-04-04T00:33:52;9.05;;;7.88;;
15408;SDS011;7803;48.130;13.788;2023-04-04T00:36:56;9.23;;;8.05;;
15408;SDS011;7803;48.130;13.788;2023-04-04T00:39:58;10.32;;;8.60;;
15408;SDS011;7803;48.130;13.788;2023-04-04T00:43:00;8.73;;;7.70;;
15408;SDS011;7803;48.130;13.788;2023-04-04T00:46:02;8.85;;;7.93;;
15408;SDS011;7803;48.130;13.788;2023-04-04T00:49:05;9.20;;;8.20;;
15408;SDS011;7803;48.130;13.788;2023-04-04T00:52:08;9.10;;;8.20;;
15408;SDS011;7803;48.130;13.788;2023-04-04T00:55:10;9.05;;;7.60;;
15408;SDS011;7803;48.130;13.788;2023-04-04T00:58:12;10.82;;;7.85;;
15408;SDS011;7803;48.130;13.788;2023-04-04T01:01:15;8.77;;;7.43;;
15408;SDS011;7803;48.130;13.788;2023-04-04T01:04:17;8.90;;;7.70;;
15408;SDS011;7803;48.130;13.788;2023-04-04T01:07:21;8.75;;;7.85;;
15408;SDS011;7803;48.130;13.788;2023-04-04T01:10:23;9.57;;;8.30;;
15408;SDS011;7803;48.130;13.788;2023-04-04T01:13:25;9.57;;;7.97;;
15408;SDS011;7803;48.130;13.788;2023-04-04T01:16:27;10.30;;;8.80;;
15408;SDS011;7803;48.130;13.788;2023-04-04T01:19:31;10.73;;;8.65;;
15408;SDS011;7803;48.130;13.788;2023-04-04T01:22:38;9.55;;;8.20;;
15408;SDS011;7803;48.130;13.788;2023-04-04T01:25:42;9.90;;;8.55;;
15408;SDS011;7803;48.130;13.788;2023-04-04T01:28:46;10.75;;;8.93;;
15408;SDS011;7803;48.130;13.788;2023-04-04T01:31:49;11.60;;;9.02;;
15408;SDS011;7803;48.130;13.788;2023-04-04T01:34:59;9.98;;;8.70;;
15408;SDS011;7803;48.130;13.788;2023-04-04T01:38:09;10.45;;;9.05;;
15408;SDS011;7803;48.130;13.788;2023-04-04T01:41:19;11.13;;;8.70;;
15408;SDS011;7803;48.130;13.788;2023-04-04T01:44:24;9.57;;;8.57;;
15408;SDS011;7803;48.130;13.788;2023-04-04T01:47:26;13.05;;;9.77;;
15408;SDS011;7803;48.130;13.788;2023-04-04T01:50:30;9.82;;;8.82;;
15408;SDS011;7803;48.130;13.788;2023-04-04T01:53:32;9.55;;;8.55;;
15408;SDS011;7803;48.130;13.788;2023-04-04T01:56:35;10.23;;;9.00;;
15408;SDS011;7803;48.130;13.788;2023-04-04T01:59:37;9.95;;;8.85;;
15408;SDS011;7803;48.130;13.788;2023-04-04T02:02:39;9.73;;;8.63;;
15408;SDS011;7803;48.130;13.788;2023-04-04T02:05:41;9.32;;;8.25;;
15408;SDS011;7803;48.130;13.788;2023-04-04T02:08:43;9.27;;;8.27;;
15408;SDS011;7803;48.130;13.788;2023-04-04T02:11:47;10.27;;;8.65;;
15408;SDS011;7803;48.130;13.788;2023-04-04T02:14:49;9.43;;;8.43;;
15408;SDS011;7803;48.130;13.788;2023-04-04T02:17:52;9.63;;;8.25;;
15408;SDS011;7803;48.130;13.788;2023-04-04T02:20:54;9.98;;;8.57;;
15408;SDS011;7803;48.130;13.788;2023-04-04T02:23:57;9.13;;;8.20;;
15408;SDS011;7803;48.130;13.788;2023-04-04T02:27:00;10.18;;;8.70;;
15408;SDS011;7803;48.130;13.788;2023-04-04T02:30:03;9.52;;;8.52;;
15408;SDS011;7803;48.130;13.788;2023-04-04T02:33:06;8.88;;;7.97;;
15408;SDS011;7803;48.130;13.788;2023-04-04T02:36:08;9.32;;;8.13;;
15408;SDS011;7803;48.130;13.788;2023-04-04T02:39:11;9.88;;;8.07;;
15408;SDS011;7803;48.130;13.788;2023-04-04T02:42:15;10.07;;;8.35;;
15408;SDS011;7803;48.130;13.788;2023-04-04T02:45:17;8.98;;;8.02;;
15408;SDS011;7803;48.130;13.788;2023-04-04T02:48:19;8.73;;;7.75;;
15408;SDS011;7803;48.130;13.788;2023-04-04T02:51:21;9.73;;;8.18;;
15408;SDS011;7803;48.130;13.788;2023-04-04T02:54:23;8.60;;;7.72;;
15408;SDS011;7803;48.130;13.788;2023-04-04T02:57:27;10.27;;;8.15;;
15408;SDS011;7803;48.130;13.788;2023-04-04T03:00:29;8.57;;;7.63;;
15408;SDS011;7803;48.130;13.788;2023-04-04T03:03:31;8.55;;;7.50;;
15408;SDS011;7803;48.130;13.788;2023-04-04T03:06:33;8.68;;;7.78;;
15408;SDS011;7803;48.130;13.788;2023-04-04T03:09:36;8.10;;;7.30;;
15408;SDS011;7803;48.130;13.788;2023-04-04T03:12:40;8.10;;;6.82;;
15408;SDS011;7803;48.130;13.788;2023-04-04T03:15:42;7.88;;;6.78;;
15408;SDS011;7803;48.130;13.788;2023-04-04T03:18:44;8.48;;;7.30;;
15408;SDS011;7803;48.130;13.788;2023-04-04T03:21:47;7.97;;;6.95;;
15408;SDS011;7803;48.130;13.788;2023-04-04T03:24:49;7.60;;;6.82;;
15408;SDS011;7803;48.130;13.788;2023-04-04T03:27:52;7.70;;;6.80;;
15408;SDS011;7803;48.130;13.788;2023-04-04T03:30:54;7.60;;;6.80;;
15408;SDS011;7803;48.130;13.788;2023-04-04T03:33:56;7.65;;;6.10;;
15408;SDS011;7803;48.130;13.788;2023-04-04T03:37:00;7.53;;;6.72;;
15408;SDS011;7803;48.130;13.788;2023-04-04T03:40:02;6.90;;;6.20;;
15408;SDS011;7803;48.130;13.788;2023-04-04T03:43:06;7.22;;;6.53;;
15408;SDS011;7803;48.130;13.788;2023-04-04T03:46:09;7.30;;;6.60;;
15408;SDS011;7803;48.130;13.788;2023-04-04T03:49:11;7.30;;;6.22;;
15408;SDS011;7803;48.130;13.788;2023-04-04T03:52:13;8.05;;;6.70;;
15408;SDS011;7803;48.130;13.788;2023-04-04T03:55:15;7.45;;;6.68;;
15408;SDS011;7803;48.130;13.788;2023-04-04T03:58:18;7.03;;;5.95;;
15408;SDS011;7803;48.130;13.788;2023-04-04T04:01:21;6.35;;;5.75;;
15408;SDS011;7803;48.130;13.788;2023-04-04T04:04:23;6.47;;;5.80;;
15408;SDS011;7803;48.130;13.788;2023-04-04T04:07:25;6.43;;;5.78;;
15408;SDS011;7803;48.130;13.788;2023-04-04T04:10:27;6.60;;;5.90;;
15408;SDS011;7803;48.130;13.788;2023-04-04T04:13:31;6.82;;;6.00;;
15408;SDS011;7803;48.130;13.788;2023-04-04T04:16:37;6.45;;;5.80;;
15408;SDS011;7803;48.130;13.788;2023-04-04T04:19:42;6.60;;;5.85;;
15408;SDS011;7803;48.130;13.788;2023-04-04T04:22:44;6.55;;;5.63;;
15408;SDS011;7803;48.130;13.788;2023-04-04T04:25:47;6.55;;;5.47;;
15408;SDS011;7803;48.130;13.788;2023-04-04T04:28:50;6.53;;;5.15;;
15408;SDS011;7803;48.130;13.788;2023-04-04T04:31:52;5.57;;;4.97;;
15408;SDS011;7803;48.130;13.788;2023-04-04T04:34:54;7.65;;;5.30;;
15408;SDS011;7803;48.130;13.788;2023-04-04T04:37:56;5.32;;;4.82;;
15408;SDS011;7803;48.130;13.788;2023-04-04T04:40:59;5.78;;;5.15;;
15408;SDS011;7803;48.130;13.788;2023-04-04T04:44:03;7.20;;;5.28;;
15408;SDS011;7803;48.130;13.788;2023-04-04T04:47:05;5.55;;;4.95;;
15408;SDS011;7803;48.130;13.788;2023-04-04T04:50:07;6.00;;;4.90;;
15408;SDS011;7803;48.130;13.788;2023-04-04T04:53:10;4.90;;;4.40;;
15408;SDS011;7803;48.130;13.788;2023-04-04T04:56:12;5.00;;;4.47;;
15408;SDS011;7803;48.130;13.788;2023-04-04T04:59:15;5.53;;;4.82;;
15408;SDS011;7803;48.130;13.788;2023-04-04T05:02:17;5.28;;;4.50;;
15408;SDS011;7803;48.130;13.788;2023-04-04T05:05:20;6.75;;;5.22;;
15408;SDS011;7803;48.130;13.788;2023-04-04T05:08:22;5.57;;;4.90;;
15408;SDS011;7803;48.130;13.788;2023-04-04T05:11:24;5.90;;;4.45;;
15408;SDS011;7803;48.130;13.788;2023-04-04T05:14:27;5.90;;;4.70;;
15408;SDS011;7803;48.130;13.788;2023-04-04T05:17:29;5.90;;;5.20;;
15408;SDS011;7803;48.130;13.788;2023-04-04T05:20:31;6.10;;;4.53;;
15408;SDS011;7803;48.130;13.788;2023-04-04T05:23:33;5.60;;;4.38;;
15408;SDS011;7803;48.130;13.788;2023-04-04T05:26:35;5.45;;;4.70;;
15408;SDS011;7803;48.130;13.788;2023-04-04T05:29:39;6.57;;;4.10;;
15408;SDS011;7803;48.130;13.788;2023-04-04T05:32:43;4.45;;;4.05;;
15408;SDS011;7803;48.130;13.788;2023-04-04T05:35:45;5.78;;;4.75;;
15408;SDS011;7803;48.130;13.788;2023-04-04T05:38:47;5.22;;;4.55;;
15408;SDS011;7803;48.130;13.788;2023-04-04T05:41:49;6.00;;;4.55;;
15408;SDS011;7803;48.130;13.788;2023-04-04T05:44:52;4.53;;;4.13;;
15408;SDS011;7803;48.130;13.788;2023-04-04T05:47:54;4.82;;;4.10;;
15408;SDS011;7803;48.130;13.788;2023-04-04T05:50:56;4.28;;;3.83;;
15408;SDS011;7803;48.130;13.788;2023-04-04T05:53:58;4.65;;;3.80;;
15408;SDS011;7803;48.130;13.788;2023-04-04T05:57:00;4.95;;;4.13;;
15408;SDS011;7803;48.130;13.788;2023-04-04T06:00:05;5.45;;;4.03;;
15408;SDS011;7803;48.130;13.788;2023-04-04T06:03:08;5.50;;;4.20;;
15408;SDS011;7803;48.130;13.788;2023-04-04T06:06:11;4.25;;;3.80;;
15408;SDS011;7803;48.130;13.788;2023-04-04T06:09:13;4.72;;;4.13;;
15408;SDS011;7803;48.130;13.788;2023-04-04T06:12:15;5.90;;;4.00;;
15408;SDS011;7803;48.130;13.788;2023-04-04T06:15:19;4.47;;;4.07;;
15408;SDS011;7803;48.130;13.788;2023-04-04T06:18:21;4.07;;;3.67;;
15408;SDS011;7803;48.130;13.788;2023-04-04T06:21:23;4.38;;;3.80;;
15408;SDS011;7803;48.130;13.788;2023-04-04T06:24:25;4.72;;;3.92;;
15408;SDS011;7803;48.130;13.788;2023-04-04T06:27:27;4.80;;;3.92;;
15408;SDS011;7803;48.130;13.788;2023-04-04T06:30:33;4.07;;;3.63;;
15408;SDS011;7803;48.130;13.788;2023-04-04T06:33:36;3.95;;;3.53;;
15408;SDS011;7803;48.130;13.788;2023-04-04T06:36:38;4.72;;;3.70;;
15408;SDS011;7803;48.130;13.788;2023-04-04T06:39:40;4.25;;;3.40;;
15408;SDS011;7803;48.130;13.788;2023-04-04T06:42:46;5.13;;;3.65;;
15408;SDS011;7803;48.130;13.788;2023-04-04T06:45:50;4.18;;;3.42;;
15408;SDS011;7803;48.130;13.788;2023-04-04T06:48:52;6.45;;;3.75;;
15408;SDS011;7803;48.130;13.788;2023-04-04T06:51:55;4.10;;;3.42;;
15408;SDS011;7803;48.130;13.788;2023-04-04T06:54:57;4.28;;;3.33;;
15408;SDS011;7803;48.130;13.788;2023-04-04T06:58:00;5.28;;;3.70;;
15408;SDS011;7803;48.130;13.788;2023-04-04T07:01:03;4.53;;;3.38;;
15408;SDS011;7803;48.130;13.788;2023-04-04T07:04:06;4.57;;;3.60;;
15408;SDS011;7803;48.130;13.788;2023-04-04T07:07:08;6.13;;;3.53;;
15408;SDS011;7803;48.130;13.788;2023-04-04T07:10:10;4.90;;;3.60;;
15408;SDS011;7803;48.130;13.788;2023-04-04T07:13:12;6.82;;;3.60;;
15408;SDS011;7803;48.130;13.788;2023-04-04T07:16:16;5.35;;;3.53;;
15408;SDS011;7803;48.130;13.788;2023-04-04T07:19:18;4.07;;;3.30;;
15408;SDS011;7803;48.130;13.788;2023-04-04T07:22:23;4.15;;;3.60;;
15408;SDS011;7803;48.130;13.788;2023-04-04T07:25:25;4.63;;;3.40;;
15408;SDS011;7803;48.130;13.788;2023-04-04T07:28:27;3.78;;;3.05;;
15408;SDS011;7803;48.130;13.788;2023-04-04T07:31:30;4.57;;;2.88;;
15408;SDS011;7803;48.130;13.788;2023-04-04T07:34:32;3.90;;;3.03;;
15408;SDS011;7803;48.130;13.788;2023-04-04T07:37:35;4.35;;;3.05;;
15408;SDS011;7803;48.130;13.788;2023-04-04T07:40:37;3.83;;;3.15;;
15408;SDS011;7803;48.130;13.788;2023-04-04T07:43:39;3.65;;;3.08;;
15408;SDS011;7803;48.130;13.788;2023-04-04T07:46:43;3.58;;;3.05;;
15408;SDS011;7803;48.130;13.788;2023-04-04T07:49:45;3.40;;;2.85;;
15408;SDS011;7803;48.130;13.788;2023-04-04T07:52:47;3.78;;;3.08;;
15408;SDS011;7803;48.130;13.788;2023-04-04T07:55:51;4.18;;;2.97;;
15408;SDS011;7803;48.130;13.788;2023-04-04T07:58:53;3.83;;;2.72;;
15408;SDS011;7803;48.130;13.788;2023-04-04T08:01:56;3.50;;;2.80;;
15408;SDS011;7803;48.130;13.788;2023-04-04T08:04:58;3.30;;;2.70;;
15408;SDS011;7803;48.130;13.788;2023-04-04T08:08:00;3.45;;;2.78;;
15408;SDS011;7803;48.130;13.788;2023-04-04T08:11:02;3.33;;;2.50;;
15408;SDS011;7803;48.130;13.788;2023-04-04T08:14:04;3.33;;;2.60;;
15408;SDS011;7803;48.130;13.788;2023-04-04T08:17:12;3.08;;;2.67;;
15408;SDS011;7803;48.130;13.788;2023-04-04T08:20:18;3.42;;;2.60;;
15408;SDS011;7803;48.130;13.788;2023-04-04T08:23:19;2.75;;;2.33;;
15408;SDS011;7803;48.130;13.788;2023-04-04T08:26:21;2.80;;;2.50;;
15408;SDS011;7803;48.130;13.788;2023-04-04T08:29:23;3.00;;;2.70;;
15408;SDS011;7803;48.130;13.788;2023-04-04T08:32:29;3.35;;;2.70;;
15408;SDS011;7803;48.130;13.788;2023-04-04T08:35:32;2.80;;;2.50;;
15408;SDS011;7803;48.130;13.788;2023-04-04T08:38:34;3.08;;;2.58;;
15408;SDS011;7803;48.130;13.788;2023-04-04T08:41:36;3.20;;;2.67;;
15408;SDS011;7803;48.130;13.788;2023-04-04T08:44:40;3.10;;;2.60;;
15408;SDS011;7803;48.130;13.788;2023-04-04T08:47:47;4.68;;;2.60;;
15408;SDS011;7803;48.130;13.788;2023-04-04T08:50:50;3.95;;;2.45;;
15408;SDS011;7803;48.130;13.788;2023-04-04T08:53:56;3.25;;;2.50;;
15408;SDS011;7803;48.130;13.788;2023-04-04T08:56:58;3.67;;;2.67;;
15408;SDS011;7803;48.130;13.788;2023-04-04T09:00:00;3.95;;;2.40;;
15408;SDS011;7803;48.130;13.788;2023-04-04T09:03:08;2.40;;;2.15;;
15408;SDS011;7803;48.130;13.788;2023-04-04T09:06:14;2.70;;;2.20;;
15408;SDS011;7803;48.130;13.788;2023-04-04T09:09:18;2.47;;;2.20;;
15408;SDS011;7803;48.130;13.788;2023-04-04T09:12:21;2.25;;;2.05;;
15408;SDS011;7803;48.130;13.788;2023-04-04T09:15:25;2.83;;;2.40;;
15408;SDS011;7803;48.130;13.788;2023-04-04T09:18:28;3.30;;;2.47;;
15408;SDS011;7803;48.130;13.788;2023-04-04T09:21:32;2.95;;;2.10;;
15408;SDS011;7803;48.130;13.788;2023-04-04T09:24:40;3.33;;;2.50;;
15408;SDS011;7803;48.130;13.788;2023-04-04T09:27:42;2.42;;;2.00;;
15408;SDS011;7803;48.130;13.788;2023-04-04T09:30:48;2.33;;;2.08;;
15408;SDS011;7803;48.130;13.788;2023-04-04T09:33:52;2.80;;;2.25;;
15408;SDS011;7803;48.130;13.788;2023-04-04T09:36:54;3.05;;;2.00;;
15408;SDS011;7803;48.130;13.788;2023-04-04T09:39:57;2.35;;;1.90;;
15408;SDS011;7803;48.130;13.788;2023-04-04T09:42:59;2.25;;;2.05;;
15408;SDS011;7803;48.130;13.788;2023-04-04T09:46:02;2.38;;;1.98;;
15408;SDS011;7803;48.130;13.788;2023-04-04T09:49:10;2.17;;;1.98;;
15408;SDS011;7803;48.130;13.788;2023-04-04T09:52:19;2.17;;;1.98;;
15408;SDS011;7803;48.130;13.788;2023-04-04T09:55:21;3.15;;;2.35;;
15408;SDS011;7803;48.130;13.788;2023-04-04T09:58:32;2.92;;;2.33;;
15408;SDS011;7803;48.130;13.788;2023-04-04T10:01:35;3.25;;;2.40;;
15408;SDS011;7803;48.130;13.788;2023-04-04T10:04:40;2.72;;;2.25;;
15408;SDS011;7803;48.130;13.788;2023-04-04T10:07:43;2.05;;;1.75;;
15408;SDS011;7803;48.130;13.788;2023-04-04T10:10:46;2.58;;;2.00;;
15408;SDS011;7803;48.130;13.788;2023-04-04T10:13:49;2.30;;;2.00;;
15408;SDS011;7803;48.130;13.788;2023-04-04T10:16:53;2.20;;;1.90;;
15408;SDS011;7803;48.130;13.788;2023-04-04T10:19:59;2.28;;;2.00;;
15408;SDS011;7803;48.130;13.788;2023-04-04T10:23:03;2.70;;;1.90;;
15408;SDS011;7803;48.130;13.788;2023-04-04T10:26:06;1.98;;;1.77;;
15408;SDS011;7803;48.130;13.788;2023-04-04T10:29:09;2.40;;;2.00;;
15408;SDS011;7803;48.130;13.788;2023-04-04T10:32:12;2.58;;;2.03;;
15408;SDS011;7803;48.130;13.788;2023-04-04T10:35:24;2.38;;;1.98;;
15408;SDS011;7803;48.130;13.788;2023-04-04T10:38:28;3.17;;;2.03;;
15408;SDS011;7803;48.130;13.788;2023-04-04T10:41:32;2.40;;;2.00;;
15408;SDS011;7803;48.130;13.788;2023-04-04T10:44:36;2.03;;;1.70;;
15408;SDS011;7803;48.130;13.788;2023-04-04T10:47:40;1.90;;;1.70;;
15408;SDS011;7803;48.130;13.788;2023-04-04T10:50:45;2.55;;;1.90;;
15408;SDS011;7803;48.130;13.788;2023-04-04T10:53:48;2.13;;;1.92;;
15408;SDS011;7803;48.130;13.788;2023-04-04T10:56:51;2.05;;;1.80;;
15408;SDS011;7803;48.130;13.788;2023-04-04T10:59:54;2.85;;;2.00;;
15408;SDS011;7803;48.130;13.788;2023-04-04T11:02:57;1.83;;;1.60;;
15408;SDS011;7803;48.130;13.788;2023-04-04T11:06:01;3.00;;;2.10;;
15408;SDS011;7803;48.130;13.788;2023-04-04T11:09:14;2.28;;;1.88;;
15408;SDS011;7803;48.130;13.788;2023-04-04T11:12:38;2.47;;;1.83;;
15408;SDS011;7803;48.130;13.788;2023-04-04T11:15:45;3.08;;;2.03;;
15408;SDS011;7803;48.130;13.788;2023-04-04T11:18:57;2.53;;;1.63;;
15408;SDS011;7803;48.130;13.788;2023-04-04T11:22:01;1.63;;;1.50;;
15408;SDS011;7803;48.130;13.788;2023-04-04T11:28:43;2.25;;;1.75;;
15408;SDS011;7803;48.130;13.788;2023-04-04T11:31:47;2.03;;;1.70;;
15408;SDS011;7803;48.130;13.788;2023-04-04T11:34:49;2.00;;;1.70;;
15408;SDS011;7803;48.130;13.788;2023-04-04T11:37:59;1.77;;;1.60;;
15408;SDS011;7803;48.130;13.788;2023-04-04T11:41:02;1.95;;;1.60;;
15408;SDS011;7803;48.130;13.788;2023-04-04T11:44:07;2.30;;;1.83;;
15408;SDS011;7803;48.130;13.788;2023-04-04T11:47:10;1.60;;;1.40;;
15408;SDS011;7803;48.130;13.788;2023-04-04T11:50:13;2.08;;;1.70;;
15408;SDS011;7803;48.130;13.788;2023-04-04T11:53:17;1.92;;;1.67;;
15408;SDS011;7803;48.130;13.788;2023-04-04T11:56:19;1.90;;;1.70;;
15408;SDS011;7803;48.130;13.788;2023-04-04T11:59:22;1.75;;;1.60;;
15408;SDS011;7803;48.130;13.788;2023-04-04T12:02:25;1.50;;;1.40;;
15408;SDS011;7803;48.130;13.788;2023-04-04T12:05:30;1.67;;;1.55;;
15408;SDS011;7803;48.130;13.788;2023-04-04T12:08:34;1.73;;;1.50;;
15408;SDS011;7803;48.130;13.788;2023-04-04T12:11:36;1.70;;;1.52;;
15408;SDS011;7803;48.130;13.788;2023-04-04T12:14:39;1.77;;;1.40;;
15408;SDS011;7803;48.130;13.788;2023-04-04T12:17:41;1.85;;;1.60;;
15408;SDS011;7803;48.130;13.788;2023-04-04T12:20:46;2.83;;;1.42;;
15408;SDS011;7803;48.130;13.788;2023-04-04T12:23:50;1.58;;;1.40;;
15408;SDS011;7803;48.130;13.788;2023-04-04T12:26:52;1.95;;;1.65;;
15408;SDS011;7803;48.130;13.788;2023-04-04T12:29:54;3.30;;;2.10;;
15408;SDS011;7803;48.130;13.788;2023-04-04T12:32:57;2.05;;;1.70;;
15408;SDS011;7803;48.130;13.788;2023-04-04T12:36:00;1.60;;;1.40;;
15408;SDS011;7803;48.130;13.788;2023-04-04T12:39:06;1.60;;;1.50;;
15408;SDS011;7803;48.130;13.788;2023-04-04T12:42:10;1.98;;;1.60;;
15408;SDS011;7803;48.130;13.788;2023-04-04T12:45:12;1.55;;;1.40;;
15408;SDS011;7803;48.130;13.788;2023-04-04T12:48:14;1.77;;;1.48;;
15408;SDS011;7803;48.130;13.788;2023-04-04T12:51:18;1.52;;;1.35;;
15408;SDS011;7803;48.130;13.788;2023-04-04T12:54:24;1.80;;;1.60;;
15408;SDS011;7803;48.130;13.788;2023-04-04T12:57:28;1.65;;;1.38;;
15408;SDS011;7803;48.130;13.788;2023-04-04T13:00:30;2.10;;;1.63;;
15408;SDS011;7803;48.130;13.788;2023-04-04T13:03:33;1.80;;;1.60;;
15408;SDS011;7803;48.130;13.788;2023-04-04T13:06:36;1.70;;;1.42;;
15408;SDS011;7803;48.130;13.788;2023-04-04T13:09:50;2.70;;;1.90;;
15408;SDS011;7803;48.130;13.788;2023-04-04T13:12:57;1.85;;;1.50;;
15408;SDS011;7803;48.130;13.788;2023-04-04T13:16:00;1.70;;;1.45;;
15408;SDS011;7803;48.130;13.788;2023-04-04T13:19:03;1.65;;;1.48;;
15408;SDS011;7803;48.130;13.788;2023-04-04T13:22:06;1.88;;;1.50;;
15408;SDS011;7803;48.130;13.788;2023-04-04T13:25:11;1.60;;;1.35;;
15408;SDS011;7803;48.130;13.788;2023-04-04T13:28:13;1.50;;;1.40;;
15408;SDS011;7803;48.130;13.788;2023-04-04T13:31:15;1.58;;;1.45;;
15408;SDS011;7803;48.130;13.788;2023-04-04T13:34:17;1.85;;;1.50;;
15408;SDS011;7803;48.130;13.788;2023-04-04T13:37:20;1.67;;;1.45;;
15408;SDS011;7803;48.130;13.788;2023-04-04T13:40:25;1.92;;;1.60;;
15408;SDS011;7803;48.130;13.788;2023-04-04T13:43:27;1.42;;;1.30;;
15408;SDS011;7803;48.130;13.788;2023-04-04T13:46:29;1.80;;;1.60;;
15408;SDS011;7803;48.130;13.788;2023-04-04T13:49:31;1.73;;;1.42;;
15408;SDS011;7803;48.130;13.788;2023-04-04T13:52:33;1.63;;;1.50;;
15408;SDS011;7803;48.130;13.788;2023-04-04T13:55:37;2.05;;;1.60;;
15408;SDS011;7803;48.130;13.788;2023-04-04T13:58:39;2.10;;;1.67;;
15408;SDS011;7803;48.130;13.788;2023-04-04T14:01:41;1.75;;;1.63;;
15408;SDS011;7803;48.130;13.788;2023-04-04T14:04:43;1.55;;;1.30;;
15408;SDS011;7803;48.130;13.788;2023-04-04T14:07:45;2.33;;;1.75;;
15408;SDS011;7803;48.130;13.788;2023-04-04T14:10:48;1.90;;;1.58;;
15408;SDS011;7803;48.130;13.788;2023-04-04T14:13:50;1.73;;;1.35;;
15408;SDS011;7803;48.130;13.788;2023-04-04T14:16:52;1.67;;;1.48;;
15408;SDS011;7803;48.130;13.788;2023-04-04T14:19:55;1.50;;;1.40;;
15408;SDS011;7803;48.130;13.788;2023-04-04T14:22:57;1.40;;;1.30;;
15408;SDS011;7803;48.130;13.788;2023-04-04T14:26:00;1.55;;;1.45;;
15408;SDS011;7803;48.130;13.788;2023-04-04T14:29:03;1.50;;;1.30;;
15408;SDS011;7803;48.130;13.788;2023-04-04T14:32:05;1.83;;;1.52;;
15408;SDS011;7803;48.130;13.788;2023-04-04T14:35:07;1.85;;;1.52;;
15408;SDS011;7803;48.130;13.788;2023-04-04T14:38:09;2.00;;;1.40;;
15408;SDS011;7803;48.130;13.788;2023-04-04T14:41:13;1.77;;;1.40;;
15408;SDS011;7803;48.130;13.788;2023-04-04T14:44:15;1.60;;;1.33;;
15408;SDS011;7803;48.130;13.788;2023-04-04T14:47:19;1.45;;;1.35;;
15408;SDS011;7803;48.130;13.788;2023-04-04T14:50:21;1.42;;;1.33;;
15408;SDS011;7803;48.130;13.788;2023-04-04T14:53:23;2.78;;;1.83;;
15408;SDS011;7803;48.130;13.788;2023-04-04T14:56:27;1.50;;;1.40;;
15408;SDS011;7803;48.130;13.788;2023-04-04T14:59:29;1.42;;;1.30;;
15408;SDS011;7803;48.130;13.788;2023-04-04T15:02:32;1.77;;;1.40;;
15408;SDS011;7803;48.130;13.788;2023-04-04T15:05:34;1.80;;;1.35;;
15408;SDS011;7803;48.130;13.788;2023-04-04T15:08:35;1.90;;;1.40;;
15408;SDS011;7803;48.130;13.788;2023-04-04T15:11:39;1.83;;;1.50;;
15408;SDS011;7803;48.130;13.788;2023-04-04T15:14:41;1.60;;;1.40;;
15408;SDS011;7803;48.130;13.788;2023-04-04T15:17:43;1.75;;;1.40;;
15408;SDS011;7803;48.130;13.788;2023-04-04T15:20:45;1.50;;;1.40;;
15408;SDS011;7803;48.130;13.788;2023-04-04T15:23:47;1.30;;;1.20;;
15408;SDS011;7803;48.130;13.788;2023-04-04T15:26:51;1.50;;;1.40;;
15408;SDS011;7803;48.130;13.788;2023-04-04T15:29:53;3.72;;;2.13;;
15408;SDS011;7803;48.130;13.788;2023-04-04T15:32:55;1.95;;;1.58;;
15408;SDS011;7803;48.130;13.788;2023-04-04T15:35:57;1.50;;;1.30;;
15408;SDS011;7803;48.130;13.788;2023-04-04T15:38:59;1.60;;;1.50;;
15408;SDS011;7803;48.130;13.788;2023-04-04T15:42:02;2.38;;;1.80;;
15408;SDS011;7803;48.130;13.788;2023-04-04T15:45:05;1.30;;;1.20;;
15408;SDS011;7803;48.130;13.788;2023-04-04T15:48:08;1.33;;;1.23;;
15408;SDS011;7803;48.130;13.788;2023-04-04T15:51:10;1.30;;;1.20;;
15408;SDS011;7803;48.130;13.788;2023-04-04T15:54:12;1.55;;;1.30;;
15408;SDS011;7803;48.130;13.788;2023-04-04T15:57:15;1.50;;;1.40;;
15408;SDS011;7803;48.130;13.788;2023-04-04T16:00:17;1.70;;;1.40;;
15408;SDS011;7803;48.130;13.788;2023-04-04T16:03:20;1.50;;;1.40;;
15408;SDS011;7803;48.130;13.788;2023-04-04T16:06:22;1.60;;;1.50;;
15408;SDS011;7803;48.130;13.788;2023-04-04T16:09:25;1.40;;;1.30;;
15408;SDS011;7803;48.130;13.788;2023-04-04T16:12:28;2.35;;;1.90;;
15408;SDS011;7803;48.130;13.788;2023-04-04T16:15:30;2.13;;;1.52;;
15408;SDS011;7803;48.130;13.788;2023-04-04T16:18:34;1.52;;;1.42;;
15408;SDS011;7803;48.130;13.788;2023-04-04T16:21:36;1.67;;;1.35;;
15408;SDS011;7803;48.130;13.788;2023-04-04T16:24:38;1.30;;;1.20;;
15408;SDS011;7803;48.130;13.788;2023-04-04T16:27:41;1.65;;;1.40;;
15408;SDS011;7803;48.130;13.788;2023-04-04T16:30:43;1.73;;;1.48;;
15408;SDS011;7803;48.130;13.788;2023-04-04T16:33:45;2.00;;;1.50;;
15408;SDS011;7803;48.130;13.788;2023-04-04T16:36:47;1.60;;;1.42;;
15408;SDS011;7803;48.130;13.788;2023-04-04T16:39:49;2.00;;;1.60;;
15408;SDS011;7803;48.130;13.788;2023-04-04T16:42:53;2.08;;;1.48;;
15408;SDS011;7803;48.130;13.788;2023-04-04T16:45:55;2.00;;;1.30;;
15408;SDS011;7803;48.130;13.788;2023-04-04T16:48:57;1.98;;;1.50;;
15408;SDS011;7803;48.130;13.788;2023-04-04T16:51:59;1.60;;;1.40;;
15408;SDS011;7803;48.130;13.788;2023-04-04T16:55:01;1.95;;;1.60;;
15408;SDS011;7803;48.130;13.788;2023-04-04T16:58:04;3.17;;;1.58;;
15408;SDS011;7803;48.130;13.788;2023-04-04T17:01:06;1.92;;;1.67;;
15408;SDS011;7803;48.130;13.788;2023-04-04T17:04:08;1.58;;;1.48;;
15408;SDS011;7803;48.130;13.788;2023-04-04T17:07:10;2.75;;;1.50;;
15408;SDS011;7803;48.130;13.788;2023-04-04T17:10:12;1.50;;;1.40;;
15408;SDS011;7803;48.130;13.788;2023-04-04T17:13:16;2.20;;;1.27;;
15408;SDS011;7803;48.130;13.788;2023-04-04T17:16:18;1.50;;;1.40;;
15408;SDS011;7803;48.130;13.788;2023-04-04T17:19:22;1.67;;;1.50;;
15408;SDS011;7803;48.130;13.788;2023-04-04T17:22:24;3.15;;;1.70;;
15408;SDS011;7803;48.130;13.788;2023-04-04T17:25:26;2.47;;;1.60;;
15408;SDS011;7803;48.130;13.788;2023-04-04T17:28:31;2.05;;;1.50;;
15408;SDS011;7803;48.130;13.788;2023-04-04T17:31:33;1.90;;;1.42;;
15408;SDS011;7803;48.130;13.788;2023-04-04T17:34:35;1.98;;;1.48;;
15408;SDS011;7803;48.130;13.788;2023-04-04T17:37:37;1.83;;;1.40;;
15408;SDS011;7803;48.130;13.788;2023-04-04T17:40:40;2.53;;;1.55;;
15408;SDS011;7803;48.130;13.788;2023-04-04T17:43:43;2.20;;;1.50;;
15408;SDS011;7803;48.130;13.788;2023-04-04T17:46:46;2.33;;;1.50;;
15408;SDS011;7803;48.130;13.788;2023-04-04T17:49:48;2.35;;;1.58;;
15408;SDS011;7803;48.130;13.788;2023-04-04T17:52:51;1.52;;;1.25;;
15408;SDS011;7803;48.130;13.788;2023-04-04T17:55:53;2.10;;;1.52;;
15408;SDS011;7803;48.130;13.788;2023-04-04T17:58:57;3.35;;;1.52;;
15408;SDS011;7803;48.130;13.788;2023-04-04T18:01:59;2.63;;;1.80;;
15408;SDS011;7803;48.130;13.788;2023-04-04T18:05:02;1.65;;;1.50;;
15408;SDS011;7803;48.130;13.788;2023-04-04T18:08:04;2.08;;;1.50;;
15408;SDS011;7803;48.130;13.788;2023-04-04T18:11:06;1.85;;;1.60;;
15408;SDS011;7803;48.130;13.788;2023-04-04T18:14:09;1.60;;;1.50;;
15408;SDS011;7803;48.130;13.788;2023-04-04T18:17:12;1.88;;;1.50;;
15408;SDS011;7803;48.130;13.788;2023-04-04T18:20:14;2.70;;;2.00;;
15408;SDS011;7803;48.130;13.788;2023-04-04T18:23:17;2.03;;;1.67;;
15408;SDS011;7803;48.130;13.788;2023-04-04T18:26:20;2.30;;;1.70;;